sensor_id;sensor_type;location;lat;lon;timestamp;P1;durP1;ratioP1;P2;durP2;ratioP2
56503;SDS011;48812;51.606;-0.114;2023-05-10T00:01:11;2.63;;;1.05;;
56503;SDS011;48812;51.606;-0.114;2023-05-10T00:03:44;1.27;;;0.95;;
56503;SDS011;48812;51.606;-0.114;2023-05-10T00:06:16;1.40;;;1.08;;
56503;SDS011;48812;51.606;-0.114;2023-05-10T00:08:50;1.67;;;0.90;;
56503;SDS011;48812;51.606;-0.114;2023-05-10T00:11:23;2.55;;;0.95;;
56503;SDS011;48812;51.606;-0.114;2023-05-10T00:13:55;2.13;;;1.30;;
56503;SDS011;48812;51.606;-0.114;2023-05-10T00:16:28;1.30;;;0.88;;
56503;SDS011;48812;51.606;-0.114;2023-05-10T00:19:00;2.40;;;1.00;;
56503;SDS011;48812;51.606;-0.114;2023-05-10T00:21:32;2.30;;;1.10;;
56503;SDS011;48812;51.606;-0.114;2023-05-10T00:24:05;3.15;;;1.13;;
56503;SDS011;48812;51.606;-0.114;2023-05-10T00:26:38;2.17;;;0.83;;
56503;SDS011;48812;51.606;-0.114;2023-05-10T00:29:10;2.78;;;1.17;;
56503;SDS011;48812;51.606;-0.114;2023-05-10T00:31:43;2.60;;;1.03;;
56503;SDS011;48812;51.606;-0.114;2023-05-10T00:34:15;1.25;;;0.98;;
56503;SDS011;48812;51.606;-0.114;2023-05-10T00:36:49;1.38;;;0.90;;
56503;SDS011;48812;51.606;-0.114;2023-05-10T00:39:21;2.65;;;0.98;;
56503;SDS011;48812;51.606;-0.114;2023-05-10T00:41:54;1.90;;;1.02;;
56503;SDS011;48812;51.606;-0.114;2023-05-10T00:44:26;1.83;;;1.10;;
56503;SDS011;48812;51.606;-0.114;2023-05-10T00:47:00;1.75;;;1.05;;
56503;SDS011;48812;51.606;-0.114;2023-05-10T00:49:32;3.03;;;1.10;;
56503;SDS011;48812;51.606;-0.114;2023-05-10T00:52:06;1.70;;;1.10;;
56503;SDS011;48812;51.606;-0.114;2023-05-10T00:54:38;3.50;;;1.00;;
56503;SDS011;48812;51.606;-0.114;2023-05-10T00:57:11;1.55;;;0.95;;
56503;SDS011;48812;51.606;-0.114;2023-05-10T00:59:43;2.10;;;1.00;;
56503;SDS011;48812;51.606;-0.114;2023-05-10T01:02:16;2.72;;;1.45;;
56503;SDS011;48812;51.606;-0.114;2023-05-10T01:04:48;2.80;;;1.10;;
56503;SDS011;48812;51.606;-0.114;2023-05-10T01:07:21;1.90;;;1.10;;
56503;SDS011;48812;51.606;-0.114;2023-05-10T01:09:54;2.10;;;1.10;;
56503;SDS011;48812;51.606;-0.114;2023-05-10T01:12:26;1.17;;;0.90;;
56503;SDS011;48812;51.606;-0.114;2023-05-10T01:15:00;1.25;;;1.00;;
56503;SDS011;48812;51.606;-0.114;2023-05-10T01:17:34;3.17;;;1.02;;
56503;SDS011;48812;51.606;-0.114;2023-05-10T01:20:11;1.20;;;0.93;;
56503;SDS011;48812;51.606;-0.114;2023-05-10T01:34:39;1.33;;;0.80;;
56503;SDS011;48812;51.606;-0.114;2023-05-10T01:37:38;1.92;;;1.08;;
56503;SDS011;48812;51.606;-0.114;2023-05-10T01:40:23;5.80;;;1.00;;
56503;SDS011;48812;51.606;-0.114;2023-05-10T01:43:03;2.45;;;0.90;;
56503;SDS011;48812;51.606;-0.114;2023-05-10T01:45:47;4.10;;;1.08;;
56503;SDS011;48812;51.606;-0.114;2023-05-10T01:48:28;1.77;;;1.02;;
56503;SDS011;48812;51.606;-0.114;2023-05-10T01:51:04;1.40;;;1.20;;
56503;SDS011;48812;51.606;-0.114;2023-05-10T01:53:38;1.65;;;1.05;;
56503;SDS011;48812;51.606;-0.114;2023-05-10T01:56:13;2.13;;;1.02;;
56503;SDS011;48812;51.606;-0.114;2023-05-10T01:58:47;2.08;;;1.00;;
56503;SDS011;48812;51.606;-0.114;2023-05-10T02:01:21;1.75;;;1.20;;
56503;SDS011;48812;51.606;-0.114;2023-05-10T02:03:58;1.60;;;1.00;;
56503;SDS011;48812;51.606;-0.114;2023-05-10T02:06:31;6.53;;;1.33;;
56503;SDS011;48812;51.606;-0.114;2023-05-10T02:09:05;1.30;;;0.95;;
56503;SDS011;48812;51.606;-0.114;2023-05-10T02:11:40;1.25;;;1.00;;
56503;SDS011;48812;51.606;-0.114;2023-05-10T02:14:14;3.40;;;1.15;;
56503;SDS011;48812;51.606;-0.114;2023-05-10T02:16:48;1.23;;;1.00;;
56503;SDS011;48812;51.606;-0.114;2023-05-10T02:19:25;1.52;;;0.82;;
56503;SDS011;48812;51.606;-0.114;2023-05-10T02:22:05;3.00;;;1.10;;
56503;SDS011;48812;51.606;-0.114;2023-05-10T02:24:39;1.80;;;1.08;;
56503;SDS011;48812;51.606;-0.114;2023-05-10T02:27:13;1.85;;;1.08;;
56503;SDS011;48812;51.606;-0.114;2023-05-10T02:29:48;1.17;;;0.82;;
56503;SDS011;48812;51.606;-0.114;2023-05-10T02:32:23;1.95;;;1.00;;
56503;SDS011;48812;51.606;-0.114;2023-05-10T02:34:58;2.05;;;1.00;;
56503;SDS011;48812;51.606;-0.114;2023-05-10T02:37:34;3.00;;;1.20;;
56503;SDS011;48812;51.606;-0.114;2023-05-10T02:40:08;2.28;;;1.30;;
56503;SDS011;48812;51.606;-0.114;2023-05-10T02:42:42;2.25;;;0.98;;
56503;SDS011;48812;51.606;-0.114;2023-05-10T02:45:18;1.83;;;0.98;;
56503;SDS011;48812;51.606;-0.114;2023-05-10T02:47:54;1.98;;;1.02;;
56503;SDS011;48812;51.606;-0.114;2023-05-10T02:50:27;3.28;;;1.20;;
56503;SDS011;48812;51.606;-0.114;2023-05-10T02:53:46;2.83;;;1.00;;
56503;SDS011;48812;51.606;-0.114;2023-05-10T02:56:09;1.60;;;0.95;;
56503;SDS011;48812;51.606;-0.114;2023-05-10T02:58:48;1.88;;;1.10;;
56503;SDS011;48812;51.606;-0.114;2023-05-10T03:01:20;2.73;;;1.00;;
56503;SDS011;48812;51.606;-0.114;2023-05-10T03:03:53;1.75;;;0.95;;
56503;SDS011;48812;51.606;-0.114;2023-05-10T03:06:25;1.77;;;1.00;;
56503;SDS011;48812;51.606;-0.114;2023-05-10T03:08:58;2.55;;;0.93;;
56503;SDS011;48812;51.606;-0.114;2023-05-10T03:17:37;2.40;;;0.90;;
56503;SDS011;48812;51.606;-0.114;2023-05-10T03:20:22;1.13;;;0.80;;
56503;SDS011;48812;51.606;-0.114;2023-05-10T03:23:05;2.08;;;1.20;;
56503;SDS011;48812;51.606;-0.114;2023-05-10T03:25:43;1.42;;;0.90;;
56503;SDS011;48812;51.606;-0.114;2023-05-10T03:28:17;2.20;;;1.00;;
56503;SDS011;48812;51.606;-0.114;2023-05-10T03:30:52;1.95;;;1.10;;
56503;SDS011;48812;51.606;-0.114;2023-05-10T03:33:26;1.70;;;0.90;;
56503;SDS011;48812;51.606;-0.114;2023-05-10T03:35:58;2.80;;;0.93;;
56503;SDS011;48812;51.606;-0.114;2023-05-10T03:38:31;2.20;;;1.13;;
56503;SDS011;48812;51.606;-0.114;2023-05-10T03:41:03;2.00;;;1.20;;
56503;SDS011;48812;51.606;-0.114;2023-05-10T03:43:37;0.85;;;0.73;;
56503;SDS011;48812;51.606;-0.114;2023-05-10T03:46:09;2.25;;;0.98;;
56503;SDS011;48812;51.606;-0.114;2023-05-10T03:48:42;1.33;;;0.90;;
56503;SDS011;48812;51.606;-0.114;2023-05-10T03:51:15;2.25;;;1.13;;
56503;SDS011;48812;51.606;-0.114;2023-05-10T03:53:47;2.08;;;1.20;;
56503;SDS011;48812;51.606;-0.114;2023-05-10T03:56:20;3.90;;;1.25;;
56503;SDS011;48812;51.606;-0.114;2023-05-10T03:58:53;2.70;;;1.08;;
56503;SDS011;48812;51.606;-0.114;2023-05-10T04:01:25;1.70;;;1.05;;
56503;SDS011;48812;51.606;-0.114;2023-05-10T04:03:58;1.95;;;1.00;;
56503;SDS011;48812;51.606;-0.114;2023-05-10T04:06:30;2.25;;;0.80;;
56503;SDS011;48812;51.606;-0.114;2023-05-10T04:09:03;1.38;;;1.00;;
56503;SDS011;48812;51.606;-0.114;2023-05-10T04:11:36;2.15;;;1.00;;
56503;SDS011;48812;51.606;-0.114;2023-05-10T04:14:08;1.40;;;0.85;;
56503;SDS011;48812;51.606;-0.114;2023-05-10T04:16:41;1.63;;;0.90;;
56503;SDS011;48812;51.606;-0.114;2023-05-10T04:19:13;1.70;;;0.97;;
56503;SDS011;48812;51.606;-0.114;2023-05-10T04:21:45;2.97;;;0.90;;
56503;SDS011;48812;51.606;-0.114;2023-05-10T04:24:18;3.10;;;1.20;;
56503;SDS011;48812;51.606;-0.114;2023-05-10T04:26:50;0.98;;;0.80;;
56503;SDS011;48812;51.606;-0.114;2023-05-10T04:29:23;2.10;;;1.10;;
56503;SDS011;48812;51.606;-0.114;2023-05-10T04:31:56;1.77;;;1.08;;
56503;SDS011;48812;51.606;-0.114;2023-05-10T04:34:28;1.75;;;0.90;;
56503;SDS011;48812;51.606;-0.114;2023-05-10T04:37:01;2.47;;;1.00;;
56503;SDS011;48812;51.606;-0.114;2023-05-10T04:39:33;1.63;;;1.03;;
56503;SDS011;48812;51.606;-0.114;2023-05-10T04:42:07;1.30;;;0.88;;
56503;SDS011;48812;51.606;-0.114;2023-05-10T04:44:39;1.70;;;0.93;;
56503;SDS011;48812;51.606;-0.114;2023-05-10T04:47:11;3.30;;;1.15;;
56503;SDS011;48812;51.606;-0.114;2023-05-10T04:49:45;2.20;;;1.10;;
56503;SDS011;48812;51.606;-0.114;2023-05-10T04:52:17;1.50;;;1.02;;
56503;SDS011;48812;51.606;-0.114;2023-05-10T04:54:50;2.40;;;1.20;;
56503;SDS011;48812;51.606;-0.114;2023-05-10T04:57:22;1.88;;;1.20;;
56503;SDS011;48812;51.606;-0.114;2023-05-10T04:59:55;3.35;;;1.27;;
56503;SDS011;48812;51.606;-0.114;2023-05-10T05:02:27;3.03;;;1.30;;
56503;SDS011;48812;51.606;-0.114;2023-05-10T05:05:01;2.65;;;0.90;;
56503;SDS011;48812;51.606;-0.114;2023-05-10T05:07:33;3.00;;;0.97;;
56503;SDS011;48812;51.606;-0.114;2023-05-10T05:10:06;4.50;;;1.03;;
56503;SDS011;48812;51.606;-0.114;2023-05-10T05:12:39;1.17;;;1.02;;
56503;SDS011;48812;51.606;-0.114;2023-05-10T05:15:11;1.60;;;1.00;;
56503;SDS011;48812;51.606;-0.114;2023-05-10T05:17:44;3.10;;;1.20;;
56503;SDS011;48812;51.606;-0.114;2023-05-10T05:20:17;2.13;;;0.88;;
56503;SDS011;48812;51.606;-0.114;2023-05-10T05:22:51;2.25;;;1.10;;
56503;SDS011;48812;51.606;-0.114;2023-05-10T05:25:24;2.75;;;1.10;;
56503;SDS011;48812;51.606;-0.114;2023-05-10T05:27:56;2.93;;;1.13;;
56503;SDS011;48812;51.606;-0.114;2023-05-10T05:30:28;1.60;;;1.02;;
56503;SDS011;48812;51.606;-0.114;2023-05-10T05:33:01;2.47;;;1.20;;
56503;SDS011;48812;51.606;-0.114;2023-05-10T05:35:33;3.42;;;1.20;;
56503;SDS011;48812;51.606;-0.114;2023-05-10T05:38:06;2.37;;;1.10;;
56503;SDS011;48812;51.606;-0.114;2023-05-10T05:40:38;6.53;;;1.10;;
56503;SDS011;48812;51.606;-0.114;2023-05-10T05:43:10;2.90;;;1.27;;
56503;SDS011;48812;51.606;-0.114;2023-05-10T05:45:43;3.17;;;1.10;;
56503;SDS011;48812;51.606;-0.114;2023-05-10T05:48:15;6.97;;;1.20;;
56503;SDS011;48812;51.606;-0.114;2023-05-10T05:50:48;3.17;;;1.42;;
56503;SDS011;48812;51.606;-0.114;2023-05-10T05:53:21;5.03;;;1.02;;
56503;SDS011;48812;51.606;-0.114;2023-05-10T05:55:57;1.52;;;1.00;;
56503;SDS011;48812;51.606;-0.114;2023-05-10T05:58:30;3.85;;;1.20;;
56503;SDS011;48812;51.606;-0.114;2023-05-10T06:01:02;3.55;;;1.05;;
56503;SDS011;48812;51.606;-0.114;2023-05-10T06:03:35;2.40;;;1.08;;
56503;SDS011;48812;51.606;-0.114;2023-05-10T06:06:07;5.97;;;1.05;;
56503;SDS011;48812;51.606;-0.114;2023-05-10T06:08:40;3.67;;;1.17;;
56503;SDS011;48812;51.606;-0.114;2023-05-10T06:11:12;5.18;;;1.20;;
56503;SDS011;48812;51.606;-0.114;2023-05-10T06:13:44;4.60;;;1.00;;
56503;SDS011;48812;51.606;-0.114;2023-05-10T06:16:17;5.20;;;1.15;;
56503;SDS011;48812;51.606;-0.114;2023-05-10T06:18:50;3.42;;;1.10;;
56503;SDS011;48812;51.606;-0.114;2023-05-10T06:21:24;7.57;;;1.08;;
56503;SDS011;48812;51.606;-0.114;2023-05-10T06:23:56;6.35;;;1.30;;
56503;SDS011;48812;51.606;-0.114;2023-05-10T06:26:29;5.18;;;1.20;;
56503;SDS011;48812;51.606;-0.114;2023-05-10T06:29:01;3.65;;;1.63;;
56503;SDS011;48812;51.606;-0.114;2023-05-10T06:31:34;7.80;;;1.55;;
56503;SDS011;48812;51.606;-0.114;2023-05-10T06:34:07;8.00;;;1.75;;
56503;SDS011;48812;51.606;-0.114;2023-05-10T06:36:40;9.65;;;1.85;;
56503;SDS011;48812;51.606;-0.114;2023-05-10T06:39:13;16.35;;;1.70;;
56503;SDS011;48812;51.606;-0.114;2023-05-10T06:41:46;18.25;;;2.13;;
56503;SDS011;48812;51.606;-0.114;2023-05-10T06:44:18;7.72;;;2.10;;
56503;SDS011;48812;51.606;-0.114;2023-05-10T06:46:51;8.73;;;1.75;;
56503;SDS011;48812;51.606;-0.114;2023-05-10T06:49:25;6.85;;;1.70;;
56503;SDS011;48812;51.606;-0.114;2023-05-10T06:51:58;10.30;;;1.85;;
56503;SDS011;48812;51.606;-0.114;2023-05-10T06:54:30;8.13;;;1.52;;
56503;SDS011;48812;51.606;-0.114;2023-05-10T06:57:03;6.60;;;1.92;;
56503;SDS011;48812;51.606;-0.114;2023-05-10T06:59:47;6.65;;;1.92;;
56503;SDS011;48812;51.606;-0.114;2023-05-10T07:02:19;15.57;;;2.10;;
56503;SDS011;48812;51.606;-0.114;2023-05-10T07:04:52;9.73;;;1.58;;
56503;SDS011;48812;51.606;-0.114;2023-05-10T07:07:24;4.28;;;1.70;;
56503;SDS011;48812;51.606;-0.114;2023-05-10T07:09:57;9.30;;;1.77;;
56503;SDS011;48812;51.606;-0.114;2023-05-10T07:12:29;5.65;;;1.58;;
56503;SDS011;48812;51.606;-0.114;2023-05-10T07:15:02;5.40;;;1.33;;
56503;SDS011;48812;51.606;-0.114;2023-05-10T07:17:35;3.30;;;1.52;;
56503;SDS011;48812;51.606;-0.114;2023-05-10T07:20:07;2.88;;;1.30;;
56503;SDS011;48812;51.606;-0.114;2023-05-10T07:22:40;7.38;;;1.85;;
56503;SDS011;48812;51.606;-0.114;2023-05-10T07:25:13;3.40;;;1.50;;
56503;SDS011;48812;51.606;-0.114;2023-05-10T07:32:52;4.05;;;1.42;;
56503;SDS011;48812;51.606;-0.114;2023-05-10T07:35:25;3.10;;;1.40;;
56503;SDS011;48812;51.606;-0.114;2023-05-10T07:37:57;6.50;;;1.52;;
56503;SDS011;48812;51.606;-0.114;2023-05-10T07:40:30;2.70;;;1.50;;
56503;SDS011;48812;51.606;-0.114;2023-05-10T07:43:03;4.13;;;1.73;;
56503;SDS011;48812;51.606;-0.114;2023-05-10T07:45:37;3.00;;;1.50;;
56503;SDS011;48812;51.606;-0.114;2023-05-10T07:48:09;4.80;;;1.60;;
56503;SDS011;48812;51.606;-0.114;2023-05-10T07:50:42;4.57;;;1.45;;
56503;SDS011;48812;51.606;-0.114;2023-05-10T07:53:16;3.10;;;1.45;;
56503;SDS011;48812;51.606;-0.114;2023-05-10T07:55:53;2.92;;;1.48;;
56503;SDS011;48812;51.606;-0.114;2023-05-10T07:58:29;2.28;;;1.35;;
56503;SDS011;48812;51.606;-0.114;2023-05-10T08:01:02;4.50;;;1.45;;
56503;SDS011;48812;51.606;-0.114;2023-05-10T08:03:34;3.72;;;1.67;;
56503;SDS011;48812;51.606;-0.114;2023-05-10T08:06:06;4.43;;;1.60;;
56503;SDS011;48812;51.606;-0.114;2023-05-10T08:08:39;3.13;;;1.55;;
56503;SDS011;48812;51.606;-0.114;2023-05-10T08:11:13;1.55;;;1.25;;
56503;SDS011;48812;51.606;-0.114;2023-05-10T08:13:48;4.53;;;1.40;;
56503;SDS011;48812;51.606;-0.114;2023-05-10T08:16:22;3.90;;;1.55;;
56503;SDS011;48812;51.606;-0.114;2023-05-10T08:18:55;3.45;;;1.50;;
56503;SDS011;48812;51.606;-0.114;2023-05-10T08:21:28;3.17;;;1.40;;
56503;SDS011;48812;51.606;-0.114;2023-05-10T08:24:01;9.02;;;1.67;;
56503;SDS011;48812;51.606;-0.114;2023-05-10T08:26:33;5.05;;;1.50;;
56503;SDS011;48812;51.606;-0.114;2023-05-10T08:29:06;4.77;;;1.60;;
56503;SDS011;48812;51.606;-0.114;2023-05-10T08:31:38;5.43;;;1.45;;
56503;SDS011;48812;51.606;-0.114;2023-05-10T08:34:11;3.60;;;1.40;;
56503;SDS011;48812;51.606;-0.114;2023-05-10T08:36:44;3.65;;;1.65;;
56503;SDS011;48812;51.606;-0.114;2023-05-10T08:39:16;3.08;;;1.42;;
56503;SDS011;48812;51.606;-0.114;2023-05-10T08:42:01;2.50;;;1.40;;
56503;SDS011;48812;51.606;-0.114;2023-05-10T08:44:36;2.67;;;1.20;;
56503;SDS011;48812;51.606;-0.114;2023-05-10T08:47:09;6.05;;;1.92;;
56503;SDS011;48812;51.606;-0.114;2023-05-10T08:49:44;4.22;;;1.52;;
56503;SDS011;48812;51.606;-0.114;2023-05-10T08:52:20;4.20;;;1.58;;
56503;SDS011;48812;51.606;-0.114;2023-05-10T08:54:53;4.68;;;1.58;;
56503;SDS011;48812;51.606;-0.114;2023-05-10T08:57:26;4.63;;;1.55;;
56503;SDS011;48812;51.606;-0.114;2023-05-10T08:59:59;2.95;;;1.35;;
56503;SDS011;48812;51.606;-0.114;2023-05-10T09:02:33;5.45;;;1.40;;
56503;SDS011;48812;51.606;-0.114;2023-05-10T09:07:38;2.45;;;1.35;;
56503;SDS011;48812;51.606;-0.114;2023-05-10T09:10:11;2.60;;;1.33;;
56503;SDS011;48812;51.606;-0.114;2023-05-10T09:12:45;5.85;;;1.52;;
56503;SDS011;48812;51.606;-0.114;2023-05-10T09:15:18;6.18;;;1.50;;
56503;SDS011;48812;51.606;-0.114;2023-05-10T09:17:51;9.10;;;1.45;;
56503;SDS011;48812;51.606;-0.114;2023-05-10T09:20:24;4.20;;;1.42;;
56503;SDS011;48812;51.606;-0.114;2023-05-10T09:22:57;3.67;;;1.60;;
56503;SDS011;48812;51.606;-0.114;2023-05-10T09:25:29;4.00;;;1.52;;
56503;SDS011;48812;51.606;-0.114;2023-05-10T09:28:02;6.13;;;1.85;;
56503;SDS011;48812;51.606;-0.114;2023-05-10T09:30:39;4.13;;;1.60;;
